Time;durP1;ratioP1;P1;durP2;ratioP2;P2;SDS_P1;SDS_P2;PMS_P1;PMS_P2;Temp;Humidity;BMP_temperature;BMP_pressure;BME280_temperature;BME280_humidity;BME280_pressure;Samples;Min_cycle;Max_cycle;Signal;HPM_P1;HPM_P2
2022/12/07 00:01:03;0.00;0.00;0.62;0.00;0.00;0.62;1.77;1.20;;;21.30;24.90;;;;;;2505149;53;20386;-64
2022/12/07 00:04:05;0.00;0.00;0.62;0.00;0.00;0.62;1.80;1.13;;;21.40;25.00;;;;;;2266703;61;20371;-61
2022/12/07 00:07:08;0.00;0.00;0.62;0.00;0.00;0.62;1.90;1.17;;;21.40;25.00;;;;;;2267323;61;20997;-62
2022/12/07 00:09:54;0.00;0.00;0.62;0.00;0.00;0.62;1.50;0.90;;;21.40;25.10;;;;;;2267091;61;20363;-65
2022/12/07 00:12:38;0.00;0.00;0.62;0.00;0.00;0.62;1.53;0.90;;;21.40;25.20;;;;;;2266720;61;20895;-67
2022/12/07 00:15:23;0.00;0.00;0.62;0.00;0.00;0.62;1.70;1.23;;;21.40;25.20;;;;;;2267622;61;20375;-67
2022/12/07 00:18:07;0.00;0.00;0.62;0.00;0.00;0.62;1.97;1.13;;;21.40;25.30;;;;;;2267143;61;20360;-67
2022/12/07 00:20:52;0.00;0.00;0.62;0.00;0.00;0.62;1.90;1.17;;;21.40;25.20;;;;;;2266913;61;20375;-66
2022/12/07 00:23:39;0.00;0.00;0.62;0.00;0.00;0.62;1.90;1.20;;;21.40;25.20;;;;;;2274281;61;20367;-66
2022/12/07 00:26:26;0.00;0.00;0.62;0.00;0.00;0.62;1.67;1.17;;;21.40;25.20;;;;;;2262828;61;20436;-66
2022/12/07 00:29:15;0.00;0.00;0.62;0.00;0.00;0.62;2.07;1.30;;;21.40;25.10;;;;;;2263163;61;20993;-65
2022/12/07 00:32:00;0.00;0.00;0.62;0.00;0.00;0.62;1.80;1.20;;;21.40;25.10;;;;;;2259759;61;20392;-66
2022/12/07 00:34:45;0.00;0.00;0.62;0.00;0.00;0.62;2.73;1.90;;;21.40;25.10;;;;;;2262646;61;20946;-66
2022/12/07 00:37:29;0.00;0.00;0.62;0.00;0.00;0.62;2.33;2.13;;;21.40;25.00;;;;;;2263311;61;20348;-67
2022/12/07 00:40:16;0.00;0.00;0.62;0.00;0.00;0.62;2.63;2.00;;;21.40;25.00;;;;;;2262975;61;20361;-68
2022/12/07 00:43:00;0.00;0.00;0.62;0.00;0.00;0.62;2.70;1.97;;;21.40;25.00;;;;;;2262595;61;20392;-66
2022/12/07 00:45:45;0.00;0.00;0.62;0.00;0.00;0.62;2.53;2.00;;;21.40;25.00;;;;;;2263251;61;20380;-66
2022/12/07 00:48:30;0.00;0.00;0.62;0.00;0.00;0.62;2.50;2.00;;;21.40;24.90;;;;;;2262544;61;20491;-67
2022/12/07 00:51:17;0.00;0.00;0.62;0.00;0.00;0.62;3.93;3.47;;;21.40;24.90;;;;;;2255763;61;20365;-65
2022/12/07 00:54:02;0.00;0.00;0.62;0.00;0.00;0.62;3.33;2.93;;;21.40;24.90;;;;;;2258683;61;20463;-65
2022/12/07 00:56:48;0.00;0.00;0.62;0.00;0.00;0.62;2.40;2.10;;;21.40;24.90;;;;;;2258684;61;20368;-68
2022/12/07 00:59:33;0.00;0.00;0.62;0.00;0.00;0.62;3.53;2.97;;;21.40;25.40;;;;;;2258461;61;20408;-66
2022/12/07 01:02:18;0.00;0.00;0.62;0.00;0.00;0.62;3.40;2.97;;;21.30;24.80;;;;;;2256095;61;20483;-67
2022/12/07 01:05:03;0.00;0.00;0.62;0.00;0.00;0.62;3.70;2.97;;;21.30;24.80;;;;;;2256095;61;20374;-66
2022/12/07 01:07:49;0.00;0.00;0.62;0.00;0.00;0.62;3.13;2.83;;;21.30;24.80;;;;;;2256445;61;20397;-68
2022/12/07 01:10:34;0.00;0.00;0.62;0.00;0.00;0.62;3.70;2.80;;;21.20;24.70;;;;;;2256048;61;20426;-68
2022/12/07 01:13:20;0.00;0.00;0.62;0.00;0.00;0.62;3.50;2.93;;;21.20;24.70;;;;;;2256360;61;20354;-67
2022/12/07 01:16:06;0.00;0.00;0.62;0.00;0.00;0.62;3.30;3.00;;;21.20;24.70;;;;;;2256049;61;20365;-66
2022/12/07 01:18:54;0.00;0.00;0.62;0.00;0.00;0.62;2.67;2.47;;;21.20;24.70;;;;;;2256015;61;20409;-67
2022/12/07 01:21:39;0.00;0.00;0.62;0.00;0.00;0.62;2.90;2.60;;;21.20;24.80;;;;;;2256271;61;20905;-68
2022/12/07 01:24:23;0.00;0.00;0.62;0.00;0.00;0.62;3.53;2.67;;;21.20;24.80;;;;;;2252964;61;20390;-66
2022/12/07 01:27:08;0.00;0.00;0.62;0.00;0.00;0.62;3.90;3.50;;;21.10;24.70;;;;;;2255901;61;20342;-69
2022/12/07 01:29:54;0.00;0.00;0.62;0.00;0.00;0.62;3.00;2.70;;;21.10;24.70;;;;;;2256435;61;21027;-69
2022/12/07 01:32:39;0.00;0.00;0.62;0.00;0.00;0.62;4.17;3.10;;;21.10;24.70;;;;;;2255792;61;20921;-67
2022/12/07 01:35:24;0.00;0.00;0.62;0.00;0.00;0.62;4.80;3.60;;;21.10;24.70;;;;;;2256177;61;20956;-66
2022/12/07 01:38:08;0.00;0.00;0.62;0.00;0.00;0.62;4.23;3.27;;;21.00;24.50;;;;;;2256263;61;20509;-66
2022/12/07 01:40:57;0.00;0.00;0.62;0.00;0.00;0.62;3.60;2.57;;;21.00;24.60;;;;;;2255843;61;20365;-67
2022/12/07 01:44:13;0.00;0.00;0.62;0.00;0.00;0.62;3.17;2.70;;;21.00;24.60;;;;;;2256115;61;20804;-68
2022/12/07 01:47:01;0.00;0.00;0.62;0.00;0.00;0.62;3.40;2.93;;;21.00;24.70;;;;;;2256290;61;20759;-66
2022/12/07 01:49:49;0.00;0.00;0.62;0.00;0.00;0.62;3.60;3.30;;;21.00;24.70;;;;;;2255869;61;20406;-67
2022/12/07 01:52:35;0.00;0.00;0.62;0.00;0.00;0.62;3.40;2.97;;;21.00;24.70;;;;;;2256525;61;20420;-68
2022/12/07 01:55:21;0.00;0.00;0.62;0.00;0.00;0.62;3.13;2.73;;;20.90;24.60;;;;;;2255979;61;21037;-66
2022/12/07 01:58:06;0.00;0.00;0.62;0.00;0.00;0.62;4.33;3.73;;;20.90;24.70;;;;;;2256218;61;20366;-66
2022/12/07 02:00:51;0.00;0.00;0.62;0.00;0.00;0.62;5.03;4.53;;;20.90;24.60;;;;;;2256061;61;20354;-66
2022/12/07 02:03:40;0.00;0.00;0.62;0.00;0.00;0.62;4.10;3.70;;;20.90;24.50;;;;;;2255608;61;20346;-68
2022/12/07 02:06:26;0.00;0.00;0.62;0.00;0.00;0.62;4.50;4.10;;;20.80;24.40;;;;;;2256184;61;20456;-67
2022/12/07 02:09:12;0.00;0.00;0.62;0.00;0.00;0.62;4.63;3.70;;;20.80;24.40;;;;;;2256100;61;20468;-68
2022/12/07 02:11:57;0.00;0.00;0.62;0.00;0.00;0.62;3.87;3.47;;;20.80;24.50;;;;;;2255661;61;20473;-67
2022/12/07 02:14:42;0.00;0.00;0.62;0.00;0.00;0.62;4.33;3.53;;;20.80;24.50;;;;;;2256519;61;20473;-68
2022/12/07 02:17:34;0.00;0.00;0.62;0.00;0.00;0.62;3.77;3.20;;;20.80;24.50;;;;;;2255788;61;20374;-67
2022/12/07 02:20:29;0.00;0.00;0.62;0.00;0.00;0.62;4.10;3.70;;;20.70;24.40;;;;;;2256258;61;21012;-67
2022/12/07 02:23:53;0.00;0.00;0.62;0.00;0.00;0.62;4.90;4.10;;;20.70;24.40;;;;;;2255462;61;20927;-68
2022/12/07 02:27:32;0.00;0.00;0.62;0.00;0.00;0.62;3.60;3.30;;;20.70;24.50;;;;;;2255796;61;20809;-67
2022/12/07 02:30:22;0.00;0.00;0.62;0.00;0.00;0.62;4.43;3.90;;;20.70;24.50;;;;;;2252122;61;20373;-67
2022/12/07 02:33:14;0.00;0.00;0.62;0.00;0.00;0.62;4.53;3.77;;;20.60;24.50;;;;;;2255451;61;20985;-67
2022/12/07 02:36:04;0.00;0.00;0.62;0.00;0.00;0.62;3.30;2.77;;;20.60;24.50;;;;;;2256217;61;20777;-68
2022/12/07 02:38:57;0.00;0.00;0.62;0.00;0.00;0.62;3.00;2.70;;;20.60;24.50;;;;;;2255655;61;20358;-68
2022/12/07 02:41:47;0.00;0.00;0.62;0.00;0.00;0.62;3.43;2.90;;;20.60;24.50;;;;;;2255573;61;20358;-68
2022/12/07 02:44:33;0.00;0.00;0.62;0.00;0.00;0.62;3.13;2.83;;;20.60;24.50;;;;;;2256202;61;20378;-66
2022/12/07 02:47:21;0.00;0.00;0.62;0.00;0.00;0.62;2.80;2.30;;;20.60;24.50;;;;;;2255265;61;20482;-68
2022/12/07 02:50:08;0.00;0.00;0.62;0.00;0.00;0.62;3.00;2.63;;;20.50;24.50;;;;;;2256223;61;20419;-68
2022/12/07 02:52:53;0.00;0.00;0.62;0.00;0.00;0.62;5.13;3.13;;;20.50;24.50;;;;;;2255108;61;20381;-66
2022/12/07 02:55:41;0.00;0.00;0.62;0.00;0.00;0.62;4.20;3.40;;;20.50;24.50;;;;;;2255497;61;20389;-66
2022/12/07 02:58:38;0.00;0.00;0.62;0.00;0.00;0.62;2.80;2.27;;;20.50;25.00;;;;;;2256081;61;20424;-66
2022/12/07 03:01:36;0.00;0.00;0.62;0.00;0.00;0.62;2.77;2.47;;;20.40;24.40;;;;;;2255388;61;20394;-66
2022/12/07 03:04:38;0.00;0.00;0.62;0.00;0.00;0.62;2.90;2.60;;;20.50;25.00;;;;;;2255825;61;20390;-68
2022/12/07 03:07:35;0.00;0.00;0.62;0.00;0.00;0.62;3.23;2.30;;;20.40;24.50;;;;;;2255744;61;20923;-68
2022/12/07 03:10:28;0.00;0.00;0.62;0.00;0.00;0.62;3.40;2.83;;;20.40;24.50;;;;;;2255320;61;20417;-68
2022/12/07 03:13:22;0.00;0.00;0.62;0.00;0.00;0.62;3.10;2.60;;;20.40;24.50;;;;;;2255714;61;20478;-68
2022/12/07 03:16:14;0.00;0.00;0.62;0.00;0.00;0.62;5.00;2.90;;;20.40;24.50;;;;;;2255499;61;20412;-66
2022/12/07 03:19:03;0.00;0.00;0.62;0.00;0.00;0.62;3.07;2.47;;;20.40;24.50;;;;;;2255865;61;20424;-65
2022/12/07 03:21:55;0.00;0.00;0.62;0.00;0.00;0.62;3.23;2.67;;;20.30;24.40;;;;;;2255701;61;20821;-66
2022/12/07 03:24:44;0.00;0.00;0.62;0.00;0.00;0.62;3.83;2.90;;;20.30;24.40;;;;;;2255363;61;20385;-68
2022/12/07 03:27:33;0.00;0.00;0.62;0.00;0.00;0.62;4.40;2.43;;;20.30;24.40;;;;;;2255798;61;20922;-68
2022/12/07 03:30:21;0.00;0.00;0.62;0.00;0.00;0.62;2.90;2.60;;;20.30;24.40;;;;;;2255756;61;20369;-69
2022/12/07 03:33:11;0.00;0.00;0.62;0.00;0.00;0.62;3.63;2.53;;;20.30;24.50;;;;;;2255284;61;20416;-68
2022/12/07 03:36:02;0.00;0.00;0.62;0.00;0.00;0.62;3.33;2.27;;;20.30;24.50;;;;;;2255869;61;20358;-68
2022/12/07 03:38:54;0.00;0.00;0.62;0.00;0.00;0.62;2.70;2.43;;;20.20;24.40;;;;;;2255258;61;20354;-67
2022/12/07 03:41:39;0.00;0.00;0.62;0.00;0.00;0.62;2.30;2.03;;;20.30;24.50;;;;;;2255035;61;20337;-67
2022/12/07 03:44:24;0.00;0.00;0.62;0.00;0.00;0.62;3.03;2.40;;;20.20;24.40;;;;;;2255391;61;20929;-68
2022/12/07 03:47:15;0.00;0.00;0.62;0.00;0.00;0.62;2.10;1.77;;;20.20;24.50;;;;;;2255236;61;20435;-68
2022/12/07 03:50:07;0.00;0.00;0.62;0.00;0.00;0.62;2.87;1.97;;;20.20;24.50;;;;;;2255392;61;20429;-68
2022/12/07 03:52:56;0.00;0.00;0.62;0.00;0.00;0.62;1.90;1.40;;;20.20;24.50;;;;;;2255534;61;20369;-66
2022/12/07 03:55:45;0.00;0.00;0.62;0.00;0.00;0.62;2.47;1.83;;;20.20;24.50;;;;;;2255624;61;20420;-67
2022/12/07 03:58:31;0.00;0.00;0.62;0.00;0.00;0.62;2.43;1.87;;;20.20;24.50;;;;;;2256125;61;20370;-68
2022/12/07 04:01:18;0.00;0.00;0.62;0.00;0.00;0.62;4.87;2.23;;;20.20;24.50;;;;;;2255264;61;20442;-67
2022/12/07 04:04:03;0.00;0.00;0.62;0.00;0.00;0.62;2.37;1.90;;;20.20;24.50;;;;;;2255927;61;20397;-67
2022/12/07 04:06:48;0.00;0.00;0.62;0.00;0.00;0.62;3.17;2.17;;;20.20;24.50;;;;;;2255486;61;20382;-68
2022/12/07 04:09:32;0.00;0.00;0.62;0.00;0.00;0.62;2.47;1.77;;;20.20;24.50;;;;;;2254892;61;20928;-66
2022/12/07 04:12:19;0.00;0.00;0.62;0.00;0.00;0.62;2.40;1.60;;;20.20;24.50;;;;;;2255808;61;20386;-66
2022/12/07 04:15:05;0.00;0.00;0.62;0.00;0.00;0.62;1.97;1.47;;;20.20;24.50;;;;;;2255594;61;20393;-66
2022/12/07 04:17:50;0.00;0.00;0.62;0.00;0.00;0.62;2.20;1.63;;;20.20;24.50;;;;;;2255408;61;20413;-68
2022/12/07 04:20:35;0.00;0.00;0.62;0.00;0.00;0.62;2.63;1.83;;;20.20;24.50;;;;;;2255918;61;20505;-67
2022/12/07 04:23:19;0.00;0.00;0.62;0.00;0.00;0.62;2.57;2.00;;;20.20;24.60;;;;;;2255468;61;20342;-67
2022/12/07 04:26:04;0.00;0.00;0.62;0.00;0.00;0.62;3.20;2.47;;;20.10;24.50;;;;;;2255866;61;20362;-69
2022/12/07 04:28:51;0.00;0.00;0.62;0.00;0.00;0.62;3.13;2.33;;;20.10;24.40;;;;;;2255545;61;20392;-68
2022/12/07 04:31:36;0.00;0.00;0.62;0.00;0.00;0.62;2.23;1.80;;;20.10;24.40;;;;;;2255342;61;20374;-67
2022/12/07 04:34:21;0.00;0.00;0.62;0.00;0.00;0.62;2.93;2.57;;;20.10;24.50;;;;;;2255210;61;20382;-68
2022/12/07 04:37:06;0.00;0.00;0.62;0.00;0.00;0.62;3.23;2.43;;;20.10;24.50;;;;;;2256143;61;20369;-69
2022/12/07 04:39:51;0.00;0.00;0.62;0.00;0.00;0.62;2.50;2.00;;;20.00;24.40;;;;;;2255681;61;20413;-68
2022/12/07 04:42:36;0.00;0.00;0.62;0.00;0.00;0.62;2.77;2.30;;;20.00;24.40;;;;;;2256448;61;20393;-67
2022/12/07 04:45:22;0.00;0.00;0.62;0.00;0.00;0.62;2.73;2.30;;;20.00;24.40;;;;;;2255784;61;20390;-67
2022/12/07 04:48:06;0.00;0.00;0.62;0.00;0.00;0.62;2.97;2.37;;;20.00;24.40;;;;;;2256293;61;20783;-66
2022/12/07 04:50:51;0.00;0.00;0.62;0.00;0.00;0.62;3.33;2.83;;;19.90;24.40;;;;;;2255803;61;20385;-67
2022/12/07 04:53:35;0.00;0.00;0.62;0.00;0.00;0.62;3.00;2.40;;;19.90;24.40;;;;;;2255868;61;20361;-68
2022/12/07 04:56:21;0.00;0.00;0.62;0.00;0.00;0.62;3.50;2.63;;;19.90;24.40;;;;;;2256553;61;20389;-67
2022/12/07 04:59:06;0.00;0.00;0.62;0.00;0.00;0.62;3.03;2.30;;;19.90;24.40;;;;;;2256072;61;20901;-67
2022/12/07 05:01:52;0.00;0.00;0.62;0.00;0.00;0.62;2.60;2.23;;;19.90;24.40;;;;;;2255582;61;20394;-68
2022/12/07 05:04:37;0.00;0.00;0.62;0.00;0.00;0.62;2.90;2.40;;;19.90;24.40;;;;;;2256304;61;20456;-68
2022/12/07 05:07:21;0.00;0.00;0.62;0.00;0.00;0.62;2.30;1.90;;;19.90;24.40;;;;;;2255409;61;20365;-67
2022/12/07 05:10:07;0.00;0.00;0.62;0.00;0.00;0.62;3.93;2.57;;;19.80;24.40;;;;;;2256144;61;20786;-68
2022/12/07 05:12:52;0.00;0.00;0.62;0.00;0.00;0.62;2.47;2.10;;;19.80;24.40;;;;;;2255911;61;20425;-68
2022/12/07 05:15:37;0.00;0.00;0.62;0.00;0.00;0.62;2.93;2.00;;;19.80;24.40;;;;;;2255850;61;20389;-66
2022/12/07 05:18:24;0.00;0.00;0.62;0.00;0.00;0.62;2.60;2.30;;;19.80;24.40;;;;;;2255799;61;20400;-69
2022/12/07 05:21:08;0.00;0.00;0.62;0.00;0.00;0.62;2.07;1.83;;;19.80;24.40;;;;;;2255958;61;20548;-69
2022/12/07 05:23:53;0.00;0.00;0.62;0.00;0.00;0.62;2.80;2.50;;;19.80;24.40;;;;;;2255701;61;20774;-67
2022/12/07 05:26:38;0.00;0.00;0.62;0.00;0.00;0.62;4.00;2.50;;;19.80;24.40;;;;;;2256096;61;20361;-68
2022/12/07 05:29:23;0.00;0.00;0.62;0.00;0.00;0.62;3.80;3.50;;;19.80;24.40;;;;;;2255268;61;20924;-67
2022/12/07 05:32:07;0.00;0.00;0.62;0.00;0.00;0.62;4.23;3.10;;;19.70;24.30;;;;;;2256021;61;20381;-68
2022/12/07 05:34:54;0.00;0.00;0.62;0.00;0.00;0.62;2.90;2.30;;;19.70;24.30;;;;;;2256065;61;20385;-67
2022/12/07 05:37:39;0.00;0.00;0.62;0.00;0.00;0.62;4.30;3.20;;;19.70;24.40;;;;;;2255866;61;20351;-70
2022/12/07 05:40:23;0.00;0.00;0.62;0.00;0.00;0.62;3.10;2.80;;;19.70;24.40;;;;;;2256208;61;20470;-65
2022/12/07 05:43:08;0.00;0.00;0.62;0.00;0.00;0.62;2.87;2.50;;;19.70;24.40;;;;;;2255872;61;20988;-67
2022/12/07 05:45:53;0.00;0.00;0.62;0.00;0.00;0.62;5.10;2.43;;;19.60;24.30;;;;;;2255226;61;20361;-67
2022/12/07 05:48:38;0.00;0.00;0.62;0.00;0.00;0.62;2.37;2.10;;;19.60;24.30;;;;;;2256029;61;20439;-63
2022/12/07 05:51:24;0.00;0.00;0.62;0.00;0.00;0.62;3.40;2.40;;;19.60;24.40;;;;;;2255530;61;20433;-60
2022/12/07 05:54:09;0.00;0.00;0.62;0.00;0.00;0.62;4.03;2.77;;;19.60;24.40;;;;;;2255814;61;20462;-64
2022/12/07 05:56:54;0.00;0.00;0.62;0.00;0.00;0.62;2.43;2.10;;;19.60;24.50;;;;;;2256204;61;20413;-67
2022/12/07 05:59:38;0.00;0.00;0.62;0.00;0.00;0.62;3.40;1.97;;;19.60;24.50;;;;;;2256031;61;20370;-66
2022/12/07 06:02:23;0.00;0.00;0.62;0.00;0.00;0.62;2.23;1.67;;;19.60;24.50;;;;;;2255889;61;20936;-65
2022/12/07 06:05:08;0.00;0.00;0.62;0.00;0.00;0.62;2.27;1.80;;;19.60;24.50;;;;;;2255912;61;20461;-63
2022/12/07 06:07:54;0.00;0.00;0.62;0.00;0.00;0.62;2.77;2.30;;;19.60;24.50;;;;;;2255433;61;20389;-63
2022/12/07 06:10:39;0.00;0.00;0.62;0.00;0.00;0.62;4.40;2.47;;;19.60;24.50;;;;;;2256284;61;20370;-63
2022/12/07 06:13:23;0.00;0.00;0.62;0.00;0.00;0.62;3.50;2.10;;;19.60;24.50;;;;;;2255748;61;20390;-67
2022/12/07 06:16:08;0.00;0.00;0.62;0.00;0.00;0.62;3.90;2.00;;;19.60;24.50;;;;;;2255762;61;20353;-63
2022/12/07 06:18:53;0.00;0.00;0.62;0.00;0.00;0.62;2.73;1.97;;;19.60;24.50;;;;;;2256200;61;20413;-64
2022/12/07 06:21:39;0.00;0.00;0.62;0.00;0.00;0.62;2.43;2.07;;;19.70;24.60;;;;;;2255016;61;20365;-65
2022/12/07 06:24:25;0.00;0.00;0.62;0.00;0.00;0.62;2.50;2.30;;;19.60;24.60;;;;;;2255770;61;20385;-66
2022/12/07 06:27:10;0.00;0.00;0.62;0.00;0.00;0.62;2.30;1.63;;;19.60;24.60;;;;;;2255168;61;20416;-67
2022/12/07 06:29:55;0.00;0.00;0.62;0.00;0.00;0.62;2.23;1.73;;;19.60;24.50;;;;;;2255171;61;20737;-65
2022/12/07 06:32:40;0.00;0.00;0.62;0.00;0.00;0.62;2.40;2.10;;;19.60;24.50;;;;;;2256314;61;20370;-62
2022/12/07 06:35:24;0.00;0.00;0.62;0.00;0.00;0.62;2.43;1.60;;;19.60;24.60;;;;;;2255420;61;20431;-66
2022/12/07 06:38:09;0.00;0.00;0.62;0.00;0.00;0.62;3.80;1.80;;;19.70;24.60;;;;;;2255372;61;20416;-65
2022/12/07 06:40:55;0.00;0.00;0.62;0.00;0.00;0.62;5.37;3.10;;;19.60;24.50;;;;;;2255490;61;20408;-66
2022/12/07 06:43:39;0.00;0.00;0.62;0.00;0.00;0.62;3.23;2.10;;;19.60;24.50;;;;;;2496973;53;20470;-63
2022/12/07 06:46:24;0.00;0.00;0.62;0.00;0.00;0.62;3.27;2.43;;;19.60;24.50;;;;;;2255393;61;20886;-63
2022/12/07 06:49:09;0.00;0.00;0.62;0.00;0.00;0.62;2.43;1.90;;;19.60;24.50;;;;;;2255360;61;20397;-64
2022/12/07 06:51:54;0.00;0.00;0.62;0.00;0.00;0.62;2.80;1.83;;;19.50;24.50;;;;;;2254868;61;20358;-67
2022/12/07 06:54:39;0.00;0.00;0.62;0.00;0.00;0.62;3.67;2.20;;;19.60;24.60;;;;;;2256244;61;20606;-64
2022/12/07 06:57:26;0.00;0.00;0.62;0.00;0.00;0.62;3.57;2.23;;;19.60;24.60;;;;;;2255452;61;20373;-64
2022/12/07 07:00:13;0.00;0.00;0.62;0.00;0.00;0.62;3.37;2.20;;;19.60;24.60;;;;;;2255378;61;20351;-62
2022/12/07 07:02:59;0.00;0.00;0.62;0.00;0.00;0.62;2.67;1.93;;;19.50;24.50;;;;;;2255717;61;20420;-63
2022/12/07 07:05:44;0.00;0.00;0.62;0.00;0.00;0.62;2.90;1.80;;;19.50;24.50;;;;;;2255311;61;20393;-67
2022/12/07 07:08:29;0.00;0.00;0.62;0.00;0.00;0.62;2.43;1.80;;;19.50;24.50;;;;;;2255731;61;20390;-62
2022/12/07 07:11:13;0.00;0.00;0.62;0.00;0.00;0.62;3.47;1.60;;;19.50;24.50;;;;;;2255012;61;20968;-69
2022/12/07 07:14:02;0.00;0.00;0.62;0.00;0.00;0.62;3.10;1.23;;;19.50;24.60;;;;;;2255157;61;20440;-64
2022/12/07 07:16:47;0.00;0.00;0.62;0.00;0.00;0.62;3.17;1.43;;;19.60;24.70;;;;;;2255468;61;20945;-66
2022/12/07 07:19:32;0.00;0.00;0.62;0.00;0.00;0.62;2.40;1.50;;;19.60;24.70;;;;;;2255574;61;20349;-61
2022/12/07 07:22:17;0.00;0.00;0.62;0.00;0.00;0.62;1.80;1.27;;;19.60;24.80;;;;;;2255054;61;20485;-62
2022/12/07 07:25:01;0.00;0.00;0.62;0.00;0.00;0.62;3.20;1.47;;;19.60;24.90;;;;;;2255829;61;20382;-65
2022/12/07 07:27:46;0.00;0.00;0.62;0.00;0.00;0.62;2.10;1.30;;;19.70;25.00;;;;;;2255118;61;20361;-61
2022/12/07 07:30:32;0.00;0.00;0.62;0.00;0.00;0.62;1.77;1.10;;;19.70;25.10;;;;;;2255456;61;20362;-63
2022/12/07 07:33:16;0.00;0.00;0.62;0.00;0.00;0.62;2.57;1.47;;;19.70;25.20;;;;;;2255895;61;20401;-64
2022/12/07 07:36:02;0.00;0.00;0.62;0.00;0.00;0.62;3.03;1.30;;;19.70;25.20;;;;;;2255537;61;20397;-67
2022/12/07 07:38:47;0.00;0.00;0.62;0.00;0.00;0.62;2.80;1.07;;;19.80;25.20;;;;;;2255939;61;20765;-68
2022/12/07 07:41:32;0.00;0.00;0.62;0.00;0.00;0.62;2.37;1.07;;;19.80;25.30;;;;;;2255212;61;20450;-65
2022/12/07 07:44:17;0.00;0.00;0.62;0.00;0.00;0.62;1.67;1.10;;;19.90;25.40;;;;;;2255143;61;20436;-66
2022/12/07 07:47:03;0.00;0.00;0.62;0.00;0.00;0.62;3.43;1.13;;;19.90;25.40;;;;;;2255649;61;20414;-67
2022/12/07 07:49:47;0.00;0.00;0.62;0.00;0.00;0.62;2.03;1.03;;;19.90;25.40;;;;;;2255229;61;20501;-68
2022/12/07 07:52:32;0.00;0.00;0.62;0.00;0.00;0.62;1.83;1.37;;;19.90;25.40;;;;;;2254696;61;20346;-66
2022/12/07 07:55:17;0.00;0.00;0.62;0.00;0.00;0.62;1.70;1.20;;;19.90;25.40;;;;;;2255649;61;20385;-69
2022/12/07 07:58:02;0.00;0.00;0.62;0.00;0.00;0.62;1.60;1.10;;;20.00;25.40;;;;;;2257097;61;20378;-66
2022/12/07 08:00:46;0.00;0.00;0.62;0.00;0.00;0.62;1.90;1.10;;;19.90;25.40;;;;;;2257504;61;20424;-66
2022/12/07 08:03:32;0.00;0.00;0.62;0.00;0.00;0.62;1.80;1.10;;;20.00;25.40;;;;;;2259381;61;20365;-67
2022/12/07 08:06:17;0.00;0.00;0.62;0.00;0.00;0.62;2.13;1.20;;;20.00;25.40;;;;;;2259147;61;20405;-67
2022/12/07 08:09:02;0.00;0.00;0.62;0.00;0.00;0.62;1.70;1.10;;;20.00;25.40;;;;;;2259451;61;21100;-62
2022/12/07 08:11:47;0.00;0.00;0.62;0.00;0.00;0.62;1.97;1.17;;;20.00;25.40;;;;;;2256063;61;20370;-63
2022/12/07 08:14:32;0.00;0.00;0.62;0.00;0.00;0.62;4.77;1.33;;;20.10;25.50;;;;;;2256685;61;20440;-65
2022/12/07 08:17:16;0.00;0.00;0.62;0.00;0.00;0.62;2.53;1.27;;;20.10;26.10;;;;;;2256705;61;20799;-63
2022/12/07 08:20:04;0.00;0.00;0.62;0.00;0.00;0.62;1.50;1.00;;;20.10;25.60;;;;;;2255865;61;20421;-65
2022/12/07 08:22:49;0.00;0.00;0.62;0.00;0.00;0.62;1.80;1.00;;;20.20;25.60;;;;;;2256111;61;20389;-66
2022/12/07 08:25:34;0.00;0.00;0.62;0.00;0.00;0.62;2.10;1.20;;;20.10;25.50;;;;;;2256011;61;20389;-65
2022/12/07 08:28:19;0.00;0.00;0.62;0.00;0.00;0.62;1.80;1.10;;;20.20;25.50;;;;;;2255744;61;20386;-66
2022/12/07 08:31:07;0.00;0.00;0.62;0.00;0.00;0.62;2.00;1.50;;;20.20;25.50;;;;;;2256349;61;20357;-62
2022/12/07 08:33:51;0.00;0.00;0.62;0.00;0.00;0.62;1.80;1.10;;;20.20;25.40;;;;;;2256123;61;20445;-61
2022/12/07 08:36:37;0.00;0.00;0.62;0.00;0.00;0.62;2.10;1.20;;;20.20;25.40;;;;;;2255968;61;20378;-61
2022/12/07 08:39:22;0.00;0.00;0.62;0.00;0.00;0.62;1.70;1.00;;;20.20;25.50;;;;;;2256509;61;20999;-63
2022/12/07 08:42:07;0.00;0.00;0.62;0.00;0.00;0.62;1.70;0.93;;;20.30;25.60;;;;;;2256086;61;20791;-61
2022/12/07 08:44:52;0.00;0.00;0.62;0.00;0.00;0.62;1.50;0.83;;;20.30;25.50;;;;;;2256251;61;20436;-63
2022/12/07 08:47:40;0.00;0.00;0.62;0.00;0.00;0.62;1.57;1.03;;;20.30;25.50;;;;;;2256020;61;20409;-62
2022/12/07 08:50:25;0.00;0.00;0.62;0.00;0.00;0.62;2.10;1.00;;;20.30;25.60;;;;;;2255272;61;20390;-62
2022/12/07 08:53:11;0.00;0.00;0.62;0.00;0.00;0.62;1.63;0.73;;;20.30;25.60;;;;;;2256530;61;20347;-64
2022/12/07 08:55:57;0.00;0.00;0.62;0.00;0.00;0.62;1.50;0.80;;;20.30;25.70;;;;;;2256224;61;20420;-63
2022/12/07 08:58:43;0.00;0.00;0.62;0.00;0.00;0.62;1.87;1.17;;;20.40;25.70;;;;;;2256148;61;21037;-63
2022/12/07 09:01:29;0.00;0.00;0.62;0.00;0.00;0.62;1.80;1.10;;;20.40;25.70;;;;;;2491914;53;20749;-63
2022/12/07 09:04:15;0.00;0.00;0.62;0.00;0.00;0.62;1.80;1.00;;;20.40;25.70;;;;;;2255826;61;20436;-63
2022/12/07 09:07:00;0.00;0.00;0.62;0.00;0.00;0.62;1.47;0.90;;;20.40;25.70;;;;;;2256087;61;20365;-63
2022/12/07 09:09:47;0.00;0.00;0.62;0.00;0.00;0.62;1.60;0.93;;;20.40;25.70;;;;;;2255980;61;21290;-62
2022/12/07 09:12:32;0.00;0.00;0.62;0.00;0.00;0.62;1.80;0.90;;;20.40;25.70;;;;;;2255607;61;20435;-63
2022/12/07 09:15:17;0.00;0.00;0.62;0.00;0.00;0.62;1.60;0.90;;;20.40;25.60;;;;;;2256560;61;20377;-62
2022/12/07 09:18:02;0.00;0.00;0.62;0.00;0.00;0.62;2.07;0.90;;;20.50;25.70;;;;;;2256063;61;20366;-63
2022/12/07 09:20:47;0.00;0.00;0.62;0.00;0.00;0.62;1.90;1.20;;;20.50;25.70;;;;;;2255619;61;20417;-63
2022/12/07 09:23:32;0.00;0.00;0.62;0.00;0.00;0.62;1.63;0.73;;;20.50;25.60;;;;;;2256242;61;20358;-62
2022/12/07 09:26:20;0.00;0.00;0.62;0.00;0.00;0.62;1.53;0.90;;;20.50;25.60;;;;;;2255876;61;20358;-63
2022/12/07 09:29:05;0.00;0.00;0.62;0.00;0.00;0.62;1.50;0.80;;;20.60;25.70;;;;;;2255970;61;20425;-62
2022/12/07 09:31:50;0.00;0.00;0.62;0.00;0.00;0.62;1.87;0.90;;;20.60;25.70;;;;;;2255400;61;20421;-62
2022/12/07 09:34:35;0.00;0.00;0.62;0.00;0.00;0.62;1.50;1.10;;;20.60;25.70;;;;;;2255525;61;20382;-62
2022/12/07 09:37:20;0.00;0.00;0.62;0.00;0.00;0.62;1.50;0.80;;;20.60;25.60;;;;;;2256345;61;20362;-62
2022/12/07 09:40:07;0.00;0.00;0.62;0.00;0.00;0.62;1.40;0.80;;;20.60;25.60;;;;;;2256053;61;20362;-62
2022/12/07 09:42:55;0.00;0.00;0.62;0.00;0.00;0.62;1.50;0.80;;;20.70;25.70;;;;;;2255188;61;20365;-62
2022/12/07 09:45:41;0.00;0.00;0.62;0.00;0.00;0.62;2.63;0.90;;;20.70;25.70;;;;;;2255940;61;20468;-62
2022/12/07 09:48:32;0.00;0.00;0.62;0.00;0.00;0.62;1.57;0.80;;;20.70;25.70;;;;;;2255524;61;20346;-62
2022/12/07 09:51:20;0.00;0.00;0.62;0.00;0.00;0.62;1.53;0.80;;;20.70;25.80;;;;;;2256031;61;20378;-62
2022/12/07 09:54:05;0.00;0.00;0.62;0.00;0.00;0.62;1.57;0.83;;;20.80;25.70;;;;;;2255970;61;20381;-62
2022/12/07 09:56:50;0.00;0.00;0.62;0.00;0.00;0.62;1.90;0.83;;;20.80;25.70;;;;;;2255610;61;20894;-63
2022/12/07 09:59:36;0.00;0.00;0.62;0.00;0.00;0.62;1.50;0.90;;;20.80;25.70;;;;;;2256334;61;20369;-65
2022/12/07 10:02:34;0.00;0.00;0.62;0.00;0.00;0.62;1.30;0.70;;;20.90;25.70;;;;;;2255967;61;20370;-67
2022/12/07 10:05:24;0.00;0.00;0.62;0.00;0.00;0.62;1.60;0.90;;;20.90;25.70;;;;;;2255573;61;20477;-66
2022/12/07 10:08:11;0.00;0.00;0.62;0.00;0.00;0.62;1.60;0.90;;;20.90;25.70;;;;;;2256274;61;20362;-63
2022/12/07 10:10:57;0.00;0.00;0.62;0.00;0.00;0.62;1.77;0.80;;;20.90;25.70;;;;;;2255413;61;20361;-62
2022/12/07 10:13:48;0.00;0.00;0.62;0.00;0.00;0.62;1.90;1.10;;;21.00;25.70;;;;;;2255498;61;20361;-64
2022/12/07 10:16:39;0.00;0.00;0.62;0.00;0.00;0.62;2.33;1.20;;;21.00;25.70;;;;;;2255814;61;20366;-68
2022/12/07 10:19:27;0.00;0.00;0.62;0.00;0.00;0.62;1.70;1.10;;;21.00;25.70;;;;;;2255628;61;20377;-66
2022/12/07 10:22:15;0.00;0.00;0.62;0.00;0.00;0.62;1.80;1.30;;;21.00;25.80;;;;;;2256018;61;20413;-66
2022/12/07 10:25:17;0.00;0.00;0.62;0.00;0.00;0.62;1.80;1.20;;;21.00;25.70;;;;;;2256050;61;20975;-67
2022/12/07 10:28:15;0.00;0.00;0.62;0.00;0.00;0.62;1.80;1.10;;;21.10;25.70;;;;;;2255738;61;20358;-61
2022/12/07 10:31:04;0.00;0.00;0.62;0.00;0.00;0.62;1.77;1.10;;;21.10;25.60;;;;;;2255807;61;20726;-64
2022/12/07 10:33:54;0.00;0.00;0.62;0.00;0.00;0.62;2.00;1.17;;;21.10;25.50;;;;;;2255400;61;20420;-63
2022/12/07 10:36:39;0.00;0.00;0.62;0.00;0.00;0.62;1.97;1.00;;;21.10;25.50;;;;;;2256218;61;20362;-64
2022/12/07 10:39:24;0.00;0.00;0.62;0.00;0.00;0.62;2.00;1.50;;;21.10;25.60;;;;;;2255837;61;20824;-67
2022/12/07 10:42:18;0.00;0.00;0.62;0.00;0.00;0.62;1.80;1.27;;;21.10;25.70;;;;;;2257370;61;20773;-64
2022/12/07 10:45:15;0.00;0.00;0.62;0.00;0.00;0.62;2.13;1.10;;;21.10;25.70;;;;;;2259618;61;20424;-66
2022/12/07 10:48:07;0.00;0.00;0.62;0.00;0.00;0.62;2.33;1.30;;;21.10;26.30;;;;;;2259500;61;20408;-64
2022/12/07 10:51:06;0.00;0.00;0.62;0.00;0.00;0.62;4.23;1.50;;;21.20;25.80;;;;;;2259906;61;20952;-66
2022/12/07 10:54:03;0.00;0.00;0.62;0.00;0.00;0.62;2.10;1.17;;;21.10;25.70;;;;;;2259730;61;20884;-68
2022/12/07 10:57:15;0.00;0.00;0.62;0.00;0.00;0.62;4.23;1.30;;;21.20;25.90;;;;;;2259616;61;20360;-65
2022/12/07 11:00:09;0.00;0.00;0.62;0.00;0.00;0.62;3.10;2.13;;;21.20;25.90;;;;;;2260020;61;20414;-64